Tiempo atmosférico en la estación meteorológica de Segovia, Segovia (1005 m.)



Fecha
DESCASC
Temp. máxima en grados centígrados (hora)
DESCASC
Temp. mínima en grados centígrados (hora)
DESCASC
Temp. media en grados centígrados
DESCASC
Racha de viento máxima en m/sg (hora)
DESCASC
Velocidad máxima media en intervalos de 10 minutos(hora)
DESCASC
Precipitaciones diarias en mm
DESCASC
Precipitaciones de 00:00 a 06:00 en mm
DESCASC
Precipitaciones de 06:00 a 12:00 en mm
DESCASC
Precipitaciones de 12:00 a 18:00 en mm
DESCASC
Precipitaciones de 18:00 a 24:00 en mm
DESCASC
18-08-2019 29.8 (17:20) 16.5 (07:50) 23.1 11.11 (18:50) 5.83 (18:00) 0 0 0 0 0
17-08-2019 34.2 (16:40) 17.2 (08:00) 25.7 10.28 (17:20) 5.28 (19:30) 0 0 0 0 0
16-08-2019 32.4 (17:40) 17.2 (05:50) 24.8 11.94 (15:30) 5.83 (19:10) 0 0 0 0 0
15-08-2019 31.5 (17:20) 16.8 (00:00) 24.1 8.06 (02:30) 4.17 (18:50) 0 0 0 0 0
14-08-2019 29.9 (18:40) 14.6 (00:00) 22.3 7.22 (17:00) 3.89 (19:50) 0 0 0 0 0
13-08-2019 25.6 (18:30) 8.8 (00:00) 17.2 10.28 (18:30) 5.28 (00:10) 0 0 0 0 0
12-08-2019 22.5 (17:30) 8.4 (00:00) 15.4 10 (23:20) 5.56 (23:20) 0 0 0 0 0
11-08-2019 23.5 (16:50) 15.5 (00:00) 19.5 10.28 (15:40) 5.83 (15:40) 0 0 0 0 0
10-08-2019 28 (18:10) 12.7 (00:00) 20.3 6.67 (16:20) 3.89 (15:50) 0 0 0 0 0
09-08-2019 28.2 (15:30) 16.8 (00:00) 22.5 13.33 (18:20) 7.78 (18:30) 1 0 0 0 1
08-08-2019 31.7 (16:50) 17.5 (00:00) 24.6 10.83 (19:30) 7.78 (19:30) 0 0 0 0 0
07-08-2019 23.8 (14:50) 18.7 (00:00) 21.3 10.83 (14:50) 7.22 (15:00) 0 0 0 0 0
06-08-2019 32.9 (15:50) 17.9 (00:00) 25.4 9.44 (17:30) 4.72 (17:30) 0 0 0 0 0
05-08-2019 34.1 (17:10) 17.3 (00:00) 25.7 10.83 (15:20) 6.11 (15:20) 0 0 0 0 0
04-08-2019 33.2 (16:40) 17.5 (00:00) 25.4 9.44 (16:50) 5.28 (19:20) 0 0 0 0 0
03-08-2019 33.9 (16:50) 18 (00:00) 26 12.5 (14:50) 6.39 (14:50) 0 0 0 0 0
02-08-2019 33.2 (18:00) 16 (00:00) 24.6 7.22 (14:30) 4.17 (18:40) 0 0 0 0 0
01-08-2019 30.1 (18:00) 18.5 (00:00) 24.3 8.89 (13:40) 5.28 (13:10) 0 0 0 0 0
31-07-2019 30.8 (16:30) 12.2 (00:00) 21.5 10.56 (17:10) 5.83 (19:10) 0 0 0 0 0
30-07-2019 25.2 (18:20) 9.7 (00:00) 17.5 8.06 (23:00) 4.17 (22:10) 0 0 0 0 0
29-07-2019 27 (15:50) 14.8 (00:00) 20.9 10.28 (16:30) 6.11 (17:20) 0 0 0 0 0
28-07-2019 26.6 (18:40) 9.4 (00:00) 18 9.17 (00:10) 4.17 (00:10) 0 0 0 0 0
27-07-2019 23.1 (18:20) 13.5 (00:00) 18.3 12.5 (18:00) 8.06 (18:00) 0 0 0 0 0
26-07-2019 26 (18:00) 17 (00:00) 21.5 10.28 (19:20) 6.11 (18:00) 0 0 0 0 0
25-07-2019 34 (16:00) 20.2 (00:00) 27.1 16.11 (15:50) 8.33 (17:00) 0 0 0 0 0
24-07-2019 34.2 (16:30) 22.8 (00:00) 28.5 11.67 (08:20) 8.61 (08:00) 0 0 0 0 0
23-07-2019 34.6 (16:30) 19.3 (00:00) 26.9 22.22 (20:20) 15.56 (21:30) 0.6 0 0.4 0 0.2
22-07-2019 36.4 (14:40) 25.5 (00:00) 31 15 (03:40) 8.89 (03:30) 0 0 0 0 0

Gráficas

Temp. máximas Temp. mínimas Temp. medias Precipitaciones Rachas de viento máximas Velocidades máximas media en intervalos de 10 minutos

Datos horarios

Fecha y hora oficial Temperatura (ºC) Velocidad del viento (km/h) Dirección del viento Racha (km/h) Dirección de racha Precipitación (mm) Presión (hPa) Tendencia (hPa) Humedad (%)
2019-08-20 23:00:00 19.7 10 Nordeste 24 Nordeste 0 906.4 1.1 49
2019-08-20 22:00:00 21 13 Nordeste 33 Nordeste 0 906.1 0.9 45
2019-08-20 21:00:00 24.2 8 Norte 19 Nordeste 0 905.5 0.2 35
2019-08-20 20:00:00 25.8 9 Noroeste 19 Noroeste 0 905.3 -0.3 31
2019-08-20 19:00:00 26.4 4 Norte 19 Norte 0 905.2 -1 31
2019-08-20 18:00:00 26.3 8 Noroeste 18 Norte 0 905.3 -1.2 31
2019-08-20 17:00:00 25.9 9 Norte 22 Nordeste 0 905.6 -1.1 33
2019-08-20 16:00:00 25.2 10 Noroeste 24 Noroeste 0 906.2 -0.8 37
2019-08-20 15:00:00 24.1 9 Noroeste 21 Norte 0 906.5 -0.5 41
2019-08-20 14:00:00 22.8 9 Noroeste 23 Noroeste 0 906.7 0 46
2019-08-20 13:00:00 21.1 10 Oeste 17 Oeste 0 907 0.4 53
2019-08-20 12:00:00 18.8 6 Noroeste 19 Noroeste 0 907 1 61
2019-08-20 11:00:00 16.1 8 Sudeste 16 Sudeste 0 906.7 1 70
2019-08-20 10:00:00 14.2 7 Oeste 11 Sudoeste 0 906.6 1.7 78
2019-08-20 09:00:00 13.4 4 Sur 8 Sur 0 906 1.8 82
2019-08-20 08:00:00 12.4 3 Noroeste 8 Oeste 0 905.7 1.6 84
2019-08-20 07:00:00 13.1 5 Oeste 8 Oeste 0 904.9 1.2 81
2019-08-20 06:00:00 13.7 6 Oeste 11 Oeste 0 904.2 1.3 78
2019-08-20 05:00:00 14.3 6 Sudoeste 14 Oeste 0 904.1 -0.1 75
2019-08-20 04:00:00 14.7 6 Oeste 21 Norte 0 903.7 -0.2 73
2019-08-20 03:00:00 16.1 6 Noroeste 15 Nordeste 0 902.9 -1.1 70
2019-08-20 02:00:00 16 9 Noroeste 21 Nordeste 0 904.2 0.5 72
2019-08-20 01:00:00 18.1 6 Noroeste 12 Noroeste 0 903.9 0.3 62
2019-08-20 00:00:00 18.8 5 Norte 17 Nordeste 0 904 1.2 60
2019-08-19 23:00:00 19.1 13 Nordeste 23 Nordeste 0 903.7 0.7 59
2019-08-19 22:00:00 19.6 7 Nordeste 23 Norte 0 903.6 0.3 57
2019-08-19 21:00:00 21.9 6 Oeste 13 Noroeste 0 902.8 -0.5 49
2019-08-19 20:00:00 22.5 8 Oeste 13 Noroeste 0 903 0.4 47
2019-08-19 19:00:00 23.2 8 Oeste 17 Noroeste 0 903.3 0.5 44
2019-08-19 18:00:00 23.1 13 Noroeste 28 Noroeste 0 903.3 0.1 46
2019-08-19 17:00:00 24.5 9 Noroeste 21 Noroeste 0 902.6 -0.5 45
2019-08-19 16:00:00 25.4 5 Norte 19 Noroeste 0 902.8 -0.5 43
2019-08-19 15:00:00 24.8 9 Noroeste 20 Oeste 0 903.2 -0.1 44
2019-08-19 14:00:00 24.2 6 Noroeste 19 Noroeste 0 903.1 0.1 46
2019-08-19 13:00:00 23.3 8 Noroeste 17 Noroeste 0 903.3 0.1 50
2019-08-19 12:00:00 21.2 7 Noroeste 18 Oeste 0 903.3 0.1 56
2019-08-19 11:00:00 20.5 9 Oeste 14 Oeste 0 903 -0.1 57
2019-08-19 10:00:00 18.5 6 Sur 13 Sudoeste 0 903.2 0.1 64
2019-08-19 09:00:00 17 7 Sudoeste 14 Sudoeste 0 903.2 0.4 68
2019-08-19 08:00:00 14.9 9 Sur 12 Sur 0 903.1 0.1 75
2019-08-19 07:00:00 15.7 7 Sudoeste 11 Oeste 0 903.1 0.1 71
2019-08-19 06:00:00 16.9 8 Sudoeste 12 Sudoeste 0 902.8 -0.5 62
2019-08-19 05:00:00 17.9 9 Oeste 14 Oeste 0 903 -0.5 59
2019-08-19 04:00:00 19.1 4 Sudoeste 13 Sudoeste 0 903 -0.6 60
2019-08-19 03:00:00 19.7 8 Sudoeste 12 Oeste 0 903.3 0 59
2019-08-19 02:00:00 20.5 3 Noroeste 10 Este 0 903.5 0.5 56
2019-08-19 01:00:00 21.3 3 Sudeste 5 Sudeste 0 903.6 1.2 53
2019-08-19 00:00:00 21.8 3 Nordeste 12 Sur 0 903.3 1.5 54
2019-08-18 23:00:00 22.7 6 Norte 15 Norte 0 903 1.2 54
2019-08-18 22:00:00 23.8 9 Norte 17 Norte 0 902.4 0.7 49
2019-08-18 21:00:00 25.6 9 Noroeste 26 Noroeste 0 901.8 0.1 33
2019-08-18 20:00:00 27.5 12 Oeste 28 Oeste 0 901.8 -0.1 28
2019-08-18 19:00:00 28.7 17 Oeste 40 Oeste 0 901.7 -0.3 24
2019-08-18 18:00:00 28.7 21 Oeste 35 Noroeste 0 901.7 -0.2 22
2019-08-18 17:00:00 28.8 15 Oeste 30 Oeste 0 901.9 0.1 23
2019-08-18 16:00:00 27.6 16 Oeste 29 Oeste 0 902 0 30
2019-08-18 15:00:00 27.9 17 Oeste 31 Oeste 0 901.9 -0.5 30
2019-08-18 14:00:00 27.5 12 Oeste 23 Noroeste 0 901.8 -0.8 31
2019-08-18 13:00:00 25.9 6 Oeste 14 Oeste 0 902 -0.5 37
2019-08-18 12:00:00 24.2 5 Sudeste 12 Oeste 0 902.4 0.1 41
2019-08-18 11:00:00 22.1 7 Sudoeste 17 Oeste 0 902.6 0.7 47
2019-08-18 10:00:00 20.7 8 Oeste 12 Oeste 0 902.5 1 51
2019-08-18 09:00:00 19.2 2 Nordeste 7 Este 0 902.3 0.8 45
2019-08-18 08:00:00 16.7 5 Este 8 Este 0 901.9 -0.3 50
2019-08-18 07:00:00 17.4 3 Nordeste 13 Sudeste 0 901.5 -0.8 47
2019-08-18 06:00:00 18 11 Sudeste 13 Sur 0 901.5 -0.2 44
2019-08-18 05:00:00 19.1 9 Sur 18 Sur 0 902.2 0.1 39
2019-08-18 04:00:00 19.7 11 Sudoeste 18 Oeste 0 902.3 -0.1 33
2019-08-18 03:00:00 20.8 4 Este 8 Este 0 901.7 -0.8 33
2019-08-18 02:00:00 21.7 5 Este 12 Sudeste 0 902.1 -0.2 31
2019-08-18 01:00:00 22.5 8 Sudeste 12 Sudeste 0 902.4 0.5 29
2019-08-18 00:00:00 23.7 7 Sudeste 9 Sudeste 0 902.5 1.1 30
2019-08-17 23:00:00 25.4 5 Este 10 Sudeste 0 902.3 1 28
2019-08-17 22:00:00 28.2 4 Oeste 10 Noroeste 0 901.9 0.5 23
2019-08-17 21:00:00 30 9 Oeste 25 Oeste 0 901.4 -0.3 22
2019-08-17 20:00:00 31.9 14 Oeste 31 Noroeste 0 901.3 -0.6 22
2019-08-17 19:00:00 33 12 Oeste 30 Oeste 0 901.4 -0.9 20
2019-08-17 18:00:00 33.5 17 Oeste 37 Oeste 0 901.7 -1.1 20
2019-08-17 17:00:00 33.8 13 Oeste 30 Oeste 0 901.9 -1.4 18
2019-08-17 16:00:00 33.8 15 Oeste 29 Sudoeste 0 902.3 -1.6 18
2019-08-17 15:00:00 32.7 8 Oeste 27 Oeste 0 902.8 -1.7 18
2019-08-17 14:00:00 32.2 10 Oeste 23 Oeste 0 903.3 -1.4 20
2019-08-17 13:00:00 30.6 11 Oeste 21 Oeste 0 903.9 -1.1 24
2019-08-17 12:00:00 27.9 7 Oeste 13 Noroeste 0 904.5 -0.5 30
2019-08-17 11:00:00 25.5 3 Oeste 8 Sudoeste 0 904.7 0 34
2019-08-17 10:00:00 23.5 3 Sudoeste 10 Este 0 905 0.5 38
2019-08-17 09:00:00 20.1 5 Este 7 Nordeste 0 905 0.3 42
2019-08-17 08:00:00 17.3 5 Nordeste 9 Nordeste 0 904.7 -0.4 46
2019-08-17 07:00:00 17.9 7 Este 14 Sudeste 0 904.5 -0.8 44
2019-08-17 06:00:00 18.2 12 Sudeste 13 Sudeste 0 904.7 -0.6 42
2019-08-17 05:00:00 18.9 10 Sur 14 Sudeste 0 905.1 -0.2 38
2019-08-17 04:00:00 19.3 4 Este 5 Este 0 905.3 0.2 41
2019-08-17 03:00:00 20 4 Este 6 Este 0 905.3 0.3 40
2019-08-17 02:00:00 21 4 Este 10 Sudeste 0 905.3 0.4 37
2019-08-17 01:00:00 22.3 10 Sudeste 13 Sudeste 0 905.1 0.7 33
2019-08-17 00:00:00 23.1 5 Este 10 Este 0 905 1 34
2019-08-16 23:00:00 25.3 5 Este 7 Este 0 904.9 1.3 28
2019-08-16 22:00:00 27.3 0 Calma 14 Oeste 0 904.4 0.9 26
2019-08-16 21:00:00 29.2 10 Oeste 24 Oeste 0 904 0.3 22
2019-08-16 20:00:00 30.9 15 Oeste 31 Noroeste 0 903.6 -0.4 23
2019-08-16 19:00:00 31.9 12 Noroeste 28 Oeste 0 903.5 -0.8 25
2019-08-16 18:00:00 32.1 15 Oeste 27 Oeste 0 903.7 -1 25
2019-08-16 17:00:00 31.9 12 Noroeste 27 Oeste 0 904 -1 25
2019-08-16 16:00:00 31.7 9 Oeste 43 Oeste 0 904.3 -1.2 26
2019-08-16 15:00:00 31.3 13 Oeste 29 Oeste 0 904.7 -1.2 25
2019-08-16 14:00:00 30.4 15 Oeste 24 Oeste 0 905 -0.9 28
2019-08-16 13:00:00 29.2 10 Oeste 19 Oeste 0 905.5 -0.6 29
2019-08-16 12:00:00 27.3 7 Oeste 16 Oeste 0 905.9 -0.4 34
2019-08-16 11:00:00 25.9 6 Oeste 11 Oeste 0 905.9 0.1 36
2019-08-16 10:00:00 23.6 3 Oeste 5 Sudoeste 0 906.1 0.6 42
2019-08-16 09:00:00 21.1 3 Este 5 Este 0 906.3 0.8 46
2019-08-16 08:00:00 17.6 2 Este 6 Este 0 905.8 0 55
2019-08-16 07:00:00 17.7 5 Este 10 Sudeste 0 905.5 0 54
2019-08-16 06:00:00 17.4 9 Sudeste 12 Sur 0 905.5 -0.3 54
2019-08-16 05:00:00 18.2 8 Oeste 19 Oeste 0 905.8 -0.2 52
2019-08-16 04:00:00 20.6 4 Este 12 Este 0 905.5 -0.9 46
2019-08-16 03:00:00 20.7 6 Nordeste 13 Sudeste 0 905.8 -0.7 47
2019-08-16 02:00:00 20.8 8 Este 19 Este 0 906 -0.5 46
2019-08-16 01:00:00 21.2 12 Este 18 Este 0 906.4 0.3 44
2019-08-16 00:00:00 23 11 Nordeste 22 Nordeste 0 906.5 0.9 42
2019-08-15 23:00:00 24.3 12 Nordeste 25 Nordeste 0 906.5 1.1 39
2019-08-15 22:00:00 26.2 8 Norte 18 Norte 0 906.1 0.6 33
2019-08-15 21:00:00 28.2 7 Noroeste 19 Noroeste 0 905.6 0 29
2019-08-15 20:00:00 30 9 Noroeste 17 Noroeste 0 905.4 -0.5 25
2019-08-15 19:00:00 30.9 12 Oeste 25 Oeste 0 905.5 -1 20
2019-08-15 18:00:00 31.3 9 Sudoeste 23 Noroeste 0 905.6 -1.3 20
2019-08-15 17:00:00 30.9 7 Oeste 21 Oeste 0 905.9 -1.3 21
2019-08-15 16:00:00 29.7 8 Noroeste 22 Oeste 0 906.5 -1.1 25
2019-08-15 15:00:00 29.4 10 Nordeste 22 Oeste 0 906.9 -1 27
2019-08-15 14:00:00 28.1 11 Noroeste 24 Noroeste 0 907.2 -0.8 27
2019-08-15 13:00:00 26.2 7 Noroeste 17 Oeste 0 907.6 -0.5 36
2019-08-15 12:00:00 24.7 9 Oeste 19 Noroeste 0 907.9 -0.1 46
2019-08-15 11:00:00 23.1 11 Sudoeste 17 Sudoeste 0 908 0.4 51
2019-08-15 10:00:00 21.3 11 Sudoeste 17 Sudoeste 0 908.1 0.5 55
2019-08-15 09:00:00 19.8 10 Sudoeste 14 Sudoeste 0 908 0.9 59
2019-08-15 08:00:00 17.3 11 Sudeste 16 Sudeste 0 907.6 0.9 66
2019-08-15 07:00:00 17.3 9 Sur 13 Oeste 0 907.6 0.7 66
2019-08-15 06:00:00 18.1 8 Sudoeste 15 Oeste 0 907.1 0 61
2019-08-15 05:00:00 19.1 10 Sur 15 Sudoeste 0 906.7 -0.1 56
2019-08-15 04:00:00 19.5 10 Sur 17 Sur 0 906.9 -0.1 48
2019-08-15 03:00:00 18.2 10 Sur 29 Oeste 0 907.1 0 37
2019-08-15 02:00:00 20.8 7 Este 15 Este 0 906.8 -0.3 32
2019-08-15 01:00:00 21.3 7 Nordeste 15 Este 0 907 0.5 31
2019-08-15 00:00:00 21.2 8 Este 12 Nordeste 0 907.1 0.8 31
2019-08-14 23:00:00 22.9 8 Este 13 Este 0 907.1 1.1 28
2019-08-14 22:00:00 24.9 4 Oeste 9 Oeste 0 906.5 0.5 24
2019-08-14 21:00:00 27.1 6 Oeste 17 Oeste 0 906.3 0.1 22
2019-08-14 20:00:00 28.6 13 Oeste 22 Oeste 0 906 -0.5 19
2019-08-14 19:00:00 29.3 8 Oeste 25 Oeste 0 906 -0.9 18
2019-08-14 18:00:00 29.6 12 Oeste 22 Oeste 0 906.2 -1.1 17
2019-08-14 17:00:00 29.2 12 Noroeste 26 Oeste 0 906.5 -0.9 18
2019-08-14 16:00:00 28.7 7 Oeste 22 Noroeste 0 906.9 -1 18
2019-08-14 15:00:00 28 10 Oeste 21 Oeste 0 907.3 -0.7 18
2019-08-14 14:00:00 26.7 7 Oeste 22 Oeste 0 907.4 -0.4 19
2019-08-14 13:00:00 26.5 10 Oeste 17 Sudoeste 0 907.9 0.3 21
2019-08-14 12:00:00 25.3 6 Oeste 19 Noroeste 0 908 0.6 22
2019-08-14 11:00:00 23.7 6 Noroeste 13 Noroeste 0 907.8 0.5 25
2019-08-14 10:00:00 22.3 4 Nordeste 9 Este 0 907.6 0.6 27
2019-08-14 09:00:00 18.6 3 Este 11 Sudeste 0 907.4 0.6 33
2019-08-14 08:00:00 14.9 4 Este 12 Este 0 907.3 0.4 40
2019-08-14 07:00:00 15.5 7 Nordeste 12 Este 0 907 -0.3 37
2019-08-14 06:00:00 14.9 7 Este 13 Este 0 906.8 -0.7 37
2019-08-14 05:00:00 15.1 5 Este 12 Este 0 906.9 -0.7 35
2019-08-14 04:00:00 15.1 6 Nordeste 10 Este 0 907.3 -0.1 36
2019-08-14 03:00:00 15.6 5 Este 10 Este 0 907.5 0.1 35
2019-08-14 02:00:00 16.1 7 Este 14 Este 0 907.6 0.4 34
2019-08-14 01:00:00 16.4 6 Este 15 Este 0 907.4 0.7 35
2019-08-14 00:00:00 18.2 6 Este 12 Este 0 907.4 1.3 31
2019-08-13 23:00:00 19.4 6 Este 18 Nordeste 0 907.2 1.3 28
2019-08-13 22:00:00 21.3 10 Norte 21 Norte 0 906.7 0.6 25
2019-08-13 21:00:00 23.2 6 Noroeste 15 Noroeste 0 906.1 0.1 23
2019-08-13 20:00:00 24.5 5 Norte 21 Noroeste 0 905.9 -0.5 21
2019-08-13 19:00:00 25.2 8 Noroeste 37 Oeste 0 906.1 -0.5 20
2019-08-13 18:00:00 25.3 8 Noroeste 21 Noroeste 0 906 -0.9 20
2019-08-13 17:00:00 25.2 10 Noroeste 22 Noroeste 0 906.4 -0.8 21
2019-08-13 16:00:00 24.8 8 Oeste 19 Oeste 0 906.6 -1 19
2019-08-13 15:00:00 23.5 8 Noroeste 24 Noroeste 0 906.9 -1 22
2019-08-13 14:00:00 22.8 11 Oeste 24 Noroeste 0 907.2 -0.4 25
2019-08-13 13:00:00 21.3 8 Noroeste 21 Norte 0 907.6 0 28
2019-08-13 12:00:00 19.7 9 Norte 22 Noroeste 0 907.9 0.5 35
2019-08-13 11:00:00 17.4 5 Oeste 9 Oeste 0 907.6 0.5 44
2019-08-13 10:00:00 14.3 3 Oeste 6 Noroeste 0 907.6 0.8 53
2019-08-13 09:00:00 11.7 3 Oeste 5 Noroeste 0 907.4 0.5 62
2019-08-13 08:00:00 9.8 3 Oeste 6 Sudeste 0 907.1 0.4 64
2019-08-13 07:00:00 9 7 Sudeste 11 Sudeste 0 906.8 -0.3 66
2019-08-13 06:00:00 9.6 4 Sudoeste 8 Sudoeste 0 906.9 -0.4 66
2019-08-13 05:00:00 11.3 4 Sudeste 12 Sudeste 0 906.7 -1.1 56
2019-08-13 04:00:00 11.5 8 Sur 12 Este 0 907.1 -0.4 54
2019-08-13 03:00:00 13.6 7 Nordeste 20 Este 0 907.3 0.3 47
2019-08-13 02:00:00 14.5 10 Este 21 Nordeste 0 907.8 0.9 50
2019-08-13 01:00:00 15.6 13 Nordeste 30 Nordeste 0 907.5 0.9 46
2019-08-13 00:00:00 16.3 19 Nordeste 36 Nordeste 0 907 0.5 44
2019-08-12 23:00:00 16.9 17 Nordeste 29 Nordeste 0 906.9 0.8 39
2019-08-12 22:00:00 17.8 12 Nordeste 25 Nordeste 0 906.6 0.9 36
2019-08-12 21:00:00 19.1 10 Nordeste 24 Nordeste 0 906.5 0.6 28
2019-08-12 20:00:00 20.8 12 Norte 25 Norte 0 906.1 -0.1 26
2019-08-12 19:00:00 21.5 13 Norte 27 Nordeste 0 905.7 -1 23
2019-08-12 18:00:00 22.3 14 Norte 26 Nordeste 0 905.9 -1 24
2019-08-12 17:00:00 21.9 7 Nordeste 28 Norte 0 906.2 -1.2 26
2019-08-12 16:00:00 21.4 9 Norte 23 Nordeste 0 906.7 -1.1 27
2019-08-12 15:00:00 20.4 8 Norte 28 Nordeste 0 906.9 -1 32
2019-08-12 14:00:00 19.4 10 Norte 29 Norte 0 907.4 -0.3 35
2019-08-12 13:00:00 18.2 12 Nordeste 26 Nordeste 0 907.8 0.2 40
2019-08-12 12:00:00 16.6 8 Norte 19 Norte 0 907.9 0.6 45
2019-08-12 11:00:00 14.7 6 Nordeste 14 Noroeste 0 907.7 1.1 59
2019-08-12 10:00:00 13 5 Noroeste 13 Este 0 907.6 1.4 67
2019-08-12 09:00:00 10.9 7 Este 11 Nordeste 0 907.3 1.4 78
2019-08-12 08:00:00 9.7 5 Sudeste 10 Sudeste 0 906.6 0.7 72
2019-08-12 07:00:00 8.6 3 Sudoeste 8 Sudoeste 0 906.2 0.1 74
2019-08-12 06:00:00 9.6 4 Sudoeste 10 Sur 0 905.9 -0.4 70
2019-08-12 05:00:00 10.5 7 Sur 9 Sudoeste 0 905.9 -0.7 64
2019-08-12 04:00:00 10.9 7 Sudoeste 9 Sur 0 906.1 -0.5 62
2019-08-12 03:00:00 11.5 7 Sur 10 Sudoeste 0 906.3 0.2 59
2019-08-12 02:00:00 13.4 4 Sudoeste 8 Oeste 0 906.6 0.8 55
2019-08-12 01:00:00 14.3 6 Oeste 20 Noroeste 0 906.6 1.6 51
2019-08-12 00:00:00 15.9 9 Sudoeste 17 Oeste 0 906.1 1.7 37
2019-08-11 23:00:00 17.2 10 Oeste 19 Oeste 0 905.8 1.8 34
2019-08-11 22:00:00 18.6 9 Oeste 27 Oeste 0 905 1.1 30
2019-08-11 21:00:00 20.2 14 Oeste 27 Oeste 0 904.4 0.5 29
2019-08-11 20:00:00 21.9 17 Oeste 32 Oeste 0 904 0.2 29
2019-08-11 19:00:00 22.1 18 Oeste 31 Oeste 0 903.9 -0.2 26
2019-08-11 18:00:00 22.5 17 Oeste 32 Oeste 0 903.9 -0.3 32
2019-08-11 17:00:00 22.8 17 Oeste 32 Noroeste 0 903.8 -0.7 34
2019-08-11 16:00:00 23 17 Oeste 37 Oeste 0 904.1 -0.2 37
2019-08-11 15:00:00 22.6 17 Oeste 30 Oeste 0 904.2 0 41
2019-08-11 14:00:00 21.2 15 Noroeste 33 Noroeste 0 904.5 0.6 48
2019-08-11 13:00:00 22.5 14 Oeste 28 Oeste 0 904.3 0.7 41
2019-08-11 12:00:00 21.3 14 Noroeste 27 Noroeste 0 904.2 0.5 41
2019-08-11 11:00:00 21 6 Noroeste 12 Oeste 0 903.9 0.3 42
2019-08-11 10:00:00 19.8 4 Este 14 Este 0 903.6 0.4 46
2019-08-11 09:00:00 17.5 10 Este 15 Este 0 903.7 -0.7 56
2019-08-11 08:00:00 15.7 10 Nordeste 14 Este 0 903.6 -0.8 62
2019-08-11 07:00:00 16.1 7 Este 21 Este 0 903.2 -0.9 60
2019-08-11 06:00:00 16.3 9 Este 24 Oeste 0 904.4 0.3 63
2019-08-11 05:00:00 17.1 15 Oeste 24 Oeste 0 904.4 0.4 52
2019-08-11 04:00:00 17.5 8 Sur 13 Sudoeste 0 904.1 -0.3 51
2019-08-11 03:00:00 18.2 5 Oeste 9 Este 0 904.1 -0.3 48
2019-08-11 02:00:00 18.6 5 Noroeste 13 Noroeste 0 904 -0.8 45
2019-08-11 01:00:00 19 4 Este 10 Oeste 0 904.4 -0.3 47
2019-08-11 00:00:00 20.6 4 Este 11 Este 0 904.4 0.3 41
2019-08-10 23:00:00 22.3 6 Nordeste 11 Noroeste 0 904.8 0.9 35
2019-08-10 22:00:00 23.2 4 Noroeste 12 Noroeste 0 904.7 0.7 31
2019-08-10 21:00:00 23.8 8 Noroeste 18 Noroeste 0 904.1 0 33
2019-08-10 20:00:00 25.1 6 Noroeste 19 Sur 0 903.9 -0.8 31
2019-08-10 19:00:00 26.7 5 Noroeste 16 Oeste 0 904 -1.5 27
2019-08-10 18:00:00 27.5 6 Sudoeste 15 Oeste 0 904.1 -1.9 27
2019-08-10 17:00:00 27.4 8 Noroeste 24 Oeste 0 904.7 -1.7 27
2019-08-10 16:00:00 26.2 11 Oeste 23 Oeste 0 905.5 -1.3 26
2019-08-10 15:00:00 25.3 8 Oeste 18 Noroeste 0 906 -1.3 34
2019-08-10 14:00:00 23.6 8 Oeste 22 Noroeste 0 906.4 -1.1 43
2019-08-10 13:00:00 21.8 5 Sudeste 14 Norte 0 906.8 -0.9 49
2019-08-10 12:00:00 19.3 6 Noroeste 14 Noroeste 0 907.3 0.5 58
2019-08-10 11:00:00 17.1 5 Noroeste 12 Sudoeste 0 907.5 0.6 67
2019-08-10 10:00:00 15.8 7 Oeste 13 Oeste 0 907.7 1.1 76
2019-08-10 09:00:00 14.7 6 Sudeste 9 Sudeste 0 906.8 0.1 81
2019-08-10 08:00:00 12.8 5 Oeste 9 Noroeste 0 906.9 0.3 89
2019-08-10 07:00:00 12.9 6 Sur 8 Sur 0 906.6 0.3 87
2019-08-10 06:00:00 13.3 5 Sur 9 Sudoeste 0 906.7 0.7 86
2019-08-10 05:00:00 13.6 6 Sudoeste 13 Sur 0 906.6 0.5 86
2019-08-10 04:00:00 13.8 10 Oeste 14 Oeste 0 906.3 0.1 85
2019-08-10 03:00:00 15.6 7 Sudoeste 15 Sudoeste 0 906 0 78
2019-08-10 02:00:00 16.7 6 Sudoeste 12 Sudoeste 0 906.1 0.3 75
2019-08-10 01:00:00 17.8 6 Sudoeste 10 Sudoeste 0 906.2 1 79
2019-08-10 00:00:00 18.2 5 Sur 8 Sur 0 906 0.6 84
2019-08-09 23:00:00 18.1 4 Sudeste 14 Sudeste 0 905.8 0.1 84
2019-08-09 22:00:00 17.3 10 Este 18 Este 0.4 905.2 -0.6 85
2019-08-09 21:00:00 17.2 9 Sudeste 13 Sudeste 0.2 905.4 1.7 83
2019-08-09 20:00:00 17.6 9 Oeste 37 Oeste 0 905.7 2.3 76
2019-08-09 19:00:00 18.2 17 Sur 48 Oeste 0.4 905.8 2.2 82
2019-08-09 18:00:00 22.8 21 Oeste 41 Noroeste 0 903.7 0.6 69
2019-08-09 17:00:00 25.1 16 Oeste 38 Oeste 0 903.4 0.3 56
2019-08-09 16:00:00 26.7 22 Oeste 42 Oeste 0 903.6 0.5 51
2019-08-09 15:00:00 27.1 21 Oeste 38 Noroeste 0 903.1 0 49
2019-08-09 14:00:00 26.8 21 Oeste 37 Oeste 0 903.1 0.5 48
2019-08-09 13:00:00 26.8 17 Oeste 36 Sudoeste 0 903.1 0.6 47
2019-08-09 12:00:00 27.1 11 Oeste 28 Oeste 0 903.1 0.9 41
2019-08-09 11:00:00 26.2 15 Oeste 30 Sudoeste 0 902.6 0.7 42
2019-08-09 10:00:00 25 24 Sudoeste 36 Sudoeste 0 902.5 0.8 43
2019-08-09 09:00:00 22.8 15 Sudoeste 23 Sudoeste 0 902.2 0.4 46
2019-08-09 08:00:00 18.9 3 Este 7 Este 0 901.9 0 54
2019-08-09 07:00:00 18.4 5 Este 8 Este 0 901.7 0 57
2019-08-09 06:00:00 19 5 Este 6 Este 0 901.8 0 56
2019-08-09 05:00:00 19.6 3 Nordeste 5 Este 0 901.9 -0.3 54
2019-08-09 04:00:00 20.1 3 Nordeste 7 Este 0 901.7 -0.7 52
2019-08-09 03:00:00 21 5 Este 7 Norte 0 901.8 -0.4 50
2019-08-09 02:00:00 22.6 6 Sudoeste 17 Sudoeste 0 902.2 0.2 47
2019-08-09 01:00:00 23.8 12 Sudoeste 22 Sur 0 902.4 0.9 43
2019-08-09 00:00:00 24.4 17 Sudoeste 24 Sudoeste 0 902.2 1.2 42
2019-08-08 23:00:00 25.3 15 Sudoeste 29 Sudoeste 0 902 1.5 38
2019-08-08 22:00:00 26.2 18 Sudoeste 33 Sudoeste 0 901.5 1.2 35
2019-08-08 21:00:00 28 24 Sudoeste 33 Sudoeste 0 901 0.6 32
2019-08-08 20:00:00 29.6 23 Sudoeste 39 Sudoeste 0 900.5 -0.2 30
2019-08-08 19:00:00 30.2 20 Sudoeste 36 Sudoeste 0 900.3 -1 33
2019-08-08 18:00:00 30.9 21 Sur 33 Sudoeste 0 900.4 -1.4 32
2019-08-08 17:00:00 31.1 20 Sudoeste 35 Sudoeste 0 900.7 -1.3 32
2019-08-08 16:00:00 31.2 21 Sudoeste 32 Sudoeste 0 901.3 -1.1 32
2019-08-08 15:00:00 29.5 15 Sudoeste 27 Sudoeste 0 901.8 -1 33
2019-08-08 14:00:00 30.1 13 Sudoeste 23 Oeste 0 902 -1 35
2019-08-08 13:00:00 27 10 Oeste 24 Sudoeste 0 902.4 -0.7 44
2019-08-08 12:00:00 26.3 11 Sudoeste 24 Sudoeste 0 902.8 -0.1 45
2019-08-08 11:00:00 24.8 12 Sudoeste 19 Oeste 0 903 0.4 49
2019-08-08 10:00:00 22.9 10 Sudoeste 20 Sudoeste 0 903.1 0.4 52
2019-08-08 09:00:00 21.7 5 Sudeste 9 Sur 0 902.9 0.1 51
2019-08-08 08:00:00 19.5 5 Este 10 Este 0 902.6 -0.3 51
2019-08-08 07:00:00 19.3 8 Este 11 Este 0 902.7 -0.3 54
2019-08-08 06:00:00 19.6 5 Sudoeste 14 Sudoeste 0 902.8 -0.5 55
2019-08-08 05:00:00 19.5 4 Sur 10 Sur 0 902.9 -0.3 55
2019-08-08 04:00:00 18.8 8 Sudeste 15 Sur 0 903 0.1 54
2019-08-08 03:00:00 17.6 9 Sur 15 Sur 0 903.3 0.3 59
2019-08-08 02:00:00 18.2 9 Sur 13 Sur 0 903.2 0.2 59
2019-08-08 01:00:00 18.5 9 Sudeste 15 Sudeste 0 902.9 0.5 58
2019-08-08 00:00:00 18.7 12 Sur 15 Sur 0 903 1 57
2019-08-07 23:00:00 19.8 12 Sudeste 14 Sur 0 903 1.1 53
2019-08-07 22:00:00 21 9 Sudoeste 22 Oeste 0 902.4 0.3 50
2019-08-07 21:00:00 22.3 16 Oeste 27 Oeste 0 902 -0.3 47
2019-08-07 20:00:00 23.3 18 Sudoeste 26 Sudoeste 0 901.9 -0.5 43
2019-08-07 19:00:00 22.6 18 Sudoeste 31 Sudoeste 0 902.1 -0.2 45
2019-08-07 18:00:00 22 21 Sudoeste 31 Sudoeste 0 902.3 -0.5 51
2019-08-07 17:00:00 21.4 18 Sudoeste 31 Sudoeste 0 902.4 -0.3 57
2019-08-07 16:00:00 23 19 Sudoeste 35 Sudoeste 0 902.3 -0.1 41
2019-08-07 15:00:00 22.8 26 Sudoeste 39 Sudoeste 0 902.8 0.5 40
2019-08-07 14:00:00 23.3 8 Sudoeste 13 Sudoeste 0 902.7 0.7 52
2019-08-07 13:00:00 22.6 6 Oeste 14 Sudoeste 0 902.4 0.9 53
2019-08-07 12:00:00 22.4 7 Oeste 18 Oeste 0 902.3 1 52
2019-08-07 11:00:00 22.5 8 Oeste 16 Oeste 0 902 1.2 52
2019-08-07 10:00:00 21.3 6 Sudoeste 14 Sudoeste 0 901.5 1.3 55
2019-08-07 09:00:00 20.2 9 Sudoeste 12 Sudoeste 0 901.3 1.5 58
2019-08-07 08:00:00 19.6 8 Sudoeste 10 Oeste 0 900.8 0.8 57
2019-08-07 07:00:00 19.5 6 Sudoeste 12 Oeste 0 900.2 -0.3 55
2019-08-07 06:00:00 20.3 4 Sudoeste 12 Sur 0 899.8 -0.8 52
2019-08-07 05:00:00 20.3 8 Sudeste 13 Sur 0 900 -0.8 50
2019-08-07 04:00:00 20.7 8 Sudoeste 18 Oeste 0 900.5 -0.7 48
2019-08-07 03:00:00 20.9 6 Oeste 11 Sur 0 900.6 -0.9 45
2019-08-07 02:00:00 22.1 10 Oeste 26 Este 0 900.8 0.2 42
2019-08-07 01:00:00 23 3 Sudeste 9 Sudoeste 0 901.2 1.4 40
2019-08-07 00:00:00 23.6 8 Oeste 24 Oeste 0 901.5 2.1 39
2019-08-06 23:00:00 25.1 3 Oeste 17 Oeste 0 900.6 1.5 37
2019-08-06 22:00:00 26.9 13 Oeste 18 Oeste 0 899.8 0.6 32
2019-08-06 21:00:00 28.3 10 Oeste 27 Noroeste 0 899.4 0 30
2019-08-06 20:00:00 29.7 13 Oeste 27 Oeste 0 899.1 -0.4 26
2019-08-06 19:00:00 31.1 15 Oeste 26 Oeste 0 899.2 -0.8 23
2019-08-06 18:00:00 31.9 15 Oeste 34 Sudoeste 0 899.4 -1.3 23
2019-08-06 17:00:00 32.4 16 Oeste 27 Oeste 0 899.5 -1.8 22
2019-08-06 16:00:00 32.2 10 Noroeste 21 Oeste 0 900 -1.8 20
2019-08-06 15:00:00 31.3 10 Oeste 25 Oeste 0 900.7 -1.3 22
2019-08-06 14:00:00 31 13 Oeste 28 Oeste 0 901.3 -0.9 23
2019-08-06 13:00:00 30 11 Oeste 26 Oeste 0 901.8 -0.5 24
2019-08-06 12:00:00 28.2 13 Oeste 21 Oeste 0 902 -0.7 27
2019-08-06 11:00:00 25.7 6 Sudoeste 11 Sudoeste 0 902.2 -0.7 36
2019-08-06 10:00:00 23.3 4 Sur 9 Sudoeste 0 902.3 -0.2 44
2019-08-06 09:00:00 21.3 4 Sudeste 8 Sudeste 0 902.7 0.5 46
2019-08-06 08:00:00 18.5 5 Sudeste 8 Sudeste 0 902.9 0.6 50
2019-08-06 07:00:00 18.2 3 Sudoeste 6 Sudoeste 0 902.5 -0.2 49
2019-08-06 06:00:00 18.5 5 Sur 8 Sur 0 902.2 -0.6 45
2019-08-06 05:00:00 19.3 5 Este 9 Sudeste 0 902.3 -0.8 43
2019-08-06 04:00:00 20.2 5 Este 12 Sudeste 0 902.7 -0.2 40
2019-08-06 03:00:00 20.9 6 Este 10 Sudeste 0 902.8 0.3 36
2019-08-06 02:00:00 21.4 4 Este 9 Este 0 903.1 0.8 34
2019-08-06 01:00:00 22.2 5 Sudeste 8 Sur 0 902.9 1.2 31
2019-08-06 00:00:00 23.6 5 Este 13 Sudeste 0 902.5 1.3 29
2019-08-05 23:00:00 25.2 12 Sudeste 14 Sudeste 0 902.3 1.6 25
2019-08-05 22:00:00 27.4 4 Oeste 15 Oeste 0 901.7 1.1 22
2019-08-05 21:00:00 29.6 14 Oeste 26 Noroeste 0 901.2 0.4 20
2019-08-05 20:00:00 31.4 15 Oeste 31 Oeste 0 900.7 -0.3 20
2019-08-05 19:00:00 32.2 13 Noroeste 27 Oeste 0 900.6 -0.7 18
2019-08-05 18:00:00 32.4 17 Noroeste 32 Oeste 0 900.8 -0.8 18
2019-08-05 17:00:00 33.9 12 Sudoeste 36 Sudoeste 0 901 -1.2 11
2019-08-05 16:00:00 33.5 21 Sudoeste 39 Sudoeste 0 901.3 -1.5 12
2019-08-05 15:00:00 33.2 18 Oeste 27 Oeste 0 901.6 -1.8 14
2019-08-05 14:00:00 31.1 11 Oeste 24 Oeste 0 902.2 -1.4 20
2019-08-05 13:00:00 30 12 Oeste 22 Oeste 0 902.8 -1.1 20
2019-08-05 12:00:00 27.1 8 Oeste 14 Oeste 0 903.4 -0.4 32
2019-08-05 11:00:00 24.8 6 Oeste 12 Oeste 0 903.6 -0.3 41
2019-08-05 10:00:00 22.6 5 Sudoeste 9 Sudoeste 0 903.9 0.1 46
2019-08-05 09:00:00 21.2 3 Sudoeste 7 Sudeste 0 903.8 0.1 48
2019-08-05 08:00:00 17.9 6 Sudeste 10 Sudeste 0 903.9 0.1 51
2019-08-05 07:00:00 17.7 7 Sur 11 Sudoeste 0 903.8 0.1 50
2019-08-05 06:00:00 19.3 8 Sudoeste 13 Sudoeste 0 903.7 0 46
2019-08-05 05:00:00 19.2 8 Sur 12 Sur 0 903.8 -0.1 41
2019-08-05 04:00:00 20.2 2 Sudeste 8 Sudeste 0 903.7 -0.3 40
2019-08-05 03:00:00 20.9 6 Nordeste 9 Este 0 903.7 0 40
2019-08-05 02:00:00 21.9 5 Este 10 Este 0 903.9 0.5 37
2019-08-05 01:00:00 22.5 8 Sudeste 15 Sur 0 904 1.3 35
2019-08-05 00:00:00 24.3 4 Este 8 Este 0 903.7 1.5 34
2019-08-04 23:00:00 26.1 6 Este 9 Sudeste 0 903.4 1.7 29
2019-08-04 22:00:00 27.6 7 Noroeste 14 Noroeste 0 902.7 1.4 25
2019-08-04 21:00:00 29.6 8 Noroeste 27 Noroeste 0 902.2 0.9 24
2019-08-04 20:00:00 31.2 15 Oeste 31 Oeste 0 901.7 0.3 21
2019-08-04 19:00:00 32.1 14 Noroeste 28 Noroeste 0 901.3 -0.6 20
2019-08-04 18:00:00 32.8 10 Oeste 31 Oeste 0 901.3 -0.9 19
2019-08-04 17:00:00 32.9 14 Oeste 34 Noroeste 0 901.4 -1.2 16
2019-08-04 16:00:00 32.1 12 Oeste 27 Noroeste 0 901.9 -1.2 19
2019-08-04 15:00:00 31.6 15 Oeste 28 Oeste 0 902.2 -1.2 21
2019-08-04 14:00:00 30.4 13 Oeste 24 Oeste 0 902.6 -0.9 25
2019-08-04 13:00:00 29.6 8 Oeste 19 Noroeste 0 903.1 -0.5 23
2019-08-04 12:00:00 26.6 10 Noroeste 17 Oeste 0 903.4 0 35
2019-08-04 11:00:00 25 5 Sur 10 Oeste 0 903.5 0.4 41
2019-08-04 10:00:00 22.8 7 Oeste 13 Oeste 0 903.6 0.4 47
2019-08-04 09:00:00 21.3 4 Nordeste 7 Sudeste 0 903.4 0.1 45
2019-08-04 08:00:00 18.2 3 Sudeste 9 Este 0 903.1 -0.1 51
2019-08-04 07:00:00 17.9 4 Este 11 Sur 0 903.2 0.1 50
2019-08-04 06:00:00 19.1 5 Este 12 Sur 0 903.3 0.4 46
2019-08-04 05:00:00 19.6 6 Sudoeste 13 Sur 0 903.2 0.4 44
2019-08-04 04:00:00 20.6 9 Sur 14 Sudoeste 0 903.1 0.6 40
2019-08-04 03:00:00 21.9 11 Sur 17 Sudoeste 0 902.9 0.5 36
2019-08-04 02:00:00 22.2 0 Calma 10 Sur 0 902.8 0.6 34
2019-08-04 01:00:00 23.1 3 Este 13 Sur 0 902.5 1 30
2019-08-04 00:00:00 23.8 9 Sudeste 13 Sudeste 0 902.4 1.5 26
2019-08-03 23:00:00 25 10 Sudeste 13 Sudeste 0 902.2 1.6 25
2019-08-03 22:00:00 27.4 5 Sudoeste 14 Noroeste 0 901.5 1 22
2019-08-03 21:00:00 30 11 Oeste 25 Oeste 0 900.9 0.1 19
2019-08-03 20:00:00 31.9 19 Oeste 31 Noroeste 0 900.6 -0.6 16
2019-08-03 19:00:00 33.1 15 Oeste 34 Sudoeste 0 900.5 -1.2 13
2019-08-03 18:00:00 33.4 17 Sudoeste 35 Sudoeste 0 900.8 -1.1 12
2019-08-03 17:00:00 33.6 14 Sur 30 Sur 0 901.2 -1.2 12
2019-08-03 16:00:00 33.2 14 Sudoeste 39 Sudoeste 0 901.7 -0.9 13
2019-08-03 15:00:00 32.9 21 Sudoeste 45 Oeste 0 901.9 -0.7 14
2019-08-03 14:00:00 32.9 18 Sudoeste 40 Sudoeste 0 902.4 -0.3 14
2019-08-03 13:00:00 31.8 15 Oeste 34 Sudoeste 0 902.6 -0.1 15
2019-08-03 12:00:00 30.8 14 Oeste 26 Oeste 0 902.6 -0.1 17
2019-08-03 11:00:00 29.1 7 Sudoeste 12 Sudoeste 0 902.7 0.1 21
2019-08-03 10:00:00 26.2 5 Nordeste 8 Este 0 902.7 0.2 25
2019-08-03 09:00:00 21.7 5 Este 11 Este 0 902.7 0.5 34
2019-08-03 08:00:00 18.6 8 Este 12 Este 0 902.6 0.4 37
2019-08-03 07:00:00 18.2 5 Nordeste 9 Este 0 902.5 0.3 39
2019-08-03 06:00:00 18.4 6 Este 7 Este 0 902.2 -0.1 40
2019-08-03 05:00:00 19 4 Este 8 Nordeste 0 902.2 -0.4 38
2019-08-03 04:00:00 20.1 5 Este 9 Este 0 902.2 -0.9 35
2019-08-03 03:00:00 20.9 6 Este 12 Sudeste 0 902.3 -0.8 34
2019-08-03 02:00:00 21.3 5 Este 9 Sudeste 0 902.6 -0.6 31
2019-08-03 01:00:00 22.4 6 Sudeste 13 Sudeste 0 903.1 0.6 28
2019-08-03 00:00:00 23.1 3 Sudeste 9 Este 0 903.1 1.1 27
2019-08-02 23:00:00 25.7 3 Sur 15 Norte 0 903.2 1.4 23
2019-08-02 22:00:00 28.1 7 Norte 17 Norte 0 902.5 0.7 19
2019-08-02 21:00:00 30.1 9 Noroeste 19 Noroeste 0 902 0 19
2019-08-02 20:00:00 31.6 7 Noroeste 17 Noroeste 0 901.8 -0.5 18
2019-08-02 19:00:00 32 12 Norte 23 Nordeste 0 901.8 -1 18
2019-08-02 18:00:00 33 8 Oeste 22 Oeste 0 902 -1.1 19
2019-08-02 17:00:00 33 5 Sudoeste 23 Oeste 0 902.3 -1.1 19
2019-08-02 16:00:00 32.3 8 Nordeste 20 Sur 0 902.8 -1 19
2019-08-02 15:00:00 31.5 5 Sur 26 Noroeste 0 903.1 -0.8 20
2019-08-02 14:00:00 30.3 6 Sudeste 23 Noroeste 0 903.4 -0.7 21
2019-08-02 13:00:00 29 10 Oeste 19 Noroeste 0 903.8 -0.2 23
2019-08-02 12:00:00 26.9 6 Noroeste 13 Noroeste 0 903.9 0.1 27
2019-08-02 11:00:00 24.2 6 Noroeste 10 Noroeste 0 904.1 0.4 32
2019-08-02 10:00:00 22.1 2 Noroeste 8 Sudoeste 0 904 0.6 38
2019-08-02 09:00:00 20.3 2 Este 6 Este 0 903.8 0.5 40
2019-08-02 08:00:00 16.9 4 Este 9 Sudeste 0 903.7 0.5 45
2019-08-02 07:00:00 16.2 7 Sur 14 Sur 0 903.4 0.4 45
2019-08-02 06:00:00 17.3 10 Sur 21 Sudoeste 0 903.3 0.4 42
2019-08-02 05:00:00 16.9 6 Sur 11 Sudoeste 0 903.2 0.2 42
2019-08-02 04:00:00 18.1 2 Oeste 10 Sudeste 0 903 0 40
2019-08-02 03:00:00 19 6 Sudeste 13 Este 0 902.9 0 38
2019-08-02 02:00:00 20 7 Este 10 Este 0 903 0.4 37
2019-08-02 01:00:00 21.1 8 Este 17 Nordeste 0 903 1.2 35
2019-08-02 00:00:00 22.7 8 Este 13 Este 0 902.9 1.6 32
2019-08-01 23:00:00 24.1 8 Este 15 Norte 0 902.6 1.7 29
2019-08-01 22:00:00 25.7 5 Norte 16 Noroeste 0 901.8 1.1 26
2019-08-01 21:00:00 27.4 9 Noroeste 23 Oeste 0 901.3 0.6 23
2019-08-01 20:00:00 28.5 10 Oeste 25 Oeste 0 900.9 0.2 23
2019-08-01 19:00:00 29.6 15 Oeste 30 Oeste 0 900.7 -0.4 21
2019-08-01 18:00:00 29.9 12 Oeste 24 Noroeste 0 900.7 -0.7 21
2019-08-01 17:00:00 29.8 10 Oeste 29 Oeste 0 900.7 -0.8 22
2019-08-01 16:00:00 29.6 17 Oeste 29 Sudoeste 0 901.1 -0.5 25
2019-08-01 15:00:00 28.8 15 Oeste 31 Sudoeste 0 901.4 0 26
2019-08-01 14:00:00 27.6 17 Oeste 32 Oeste 0 901.5 0.2 28
2019-08-01 13:00:00 26.5 16 Oeste 31 Oeste 0 901.6 0.7 28
2019-08-01 12:00:00 25.3 10 Oeste 20 Noroeste 0 901.4 0.8 41
2019-08-01 11:00:00 22.1 5 Oeste 15 Noroeste 0 901.3 1 50
2019-08-01 10:00:00 20.2 9 Oeste 14 Noroeste 0 900.9 1 54
2019-08-01 09:00:00 19.7 7 Oeste 13 Noroeste 0 900.6 1 57
2019-08-01 08:00:00 19 3 Norte 8 Este 0 900.3 0.9 66
2019-08-01 07:00:00 18.6 4 Norte 12 Norte 0 899.9 -0.1 63
2019-08-01 06:00:00 19.7 4 Sudoeste 10 Este 0 899.6 -0.8 57
2019-08-01 05:00:00 20.5 5 Este 12 Sudeste 0 899.4 -1.3 59
2019-08-01 04:00:00 20.3 6 Oeste 13 Noroeste 0 900 -1.3 51
2019-08-01 03:00:00 20.7 3 Este 12 Noroeste 0 900.4 -0.8 45
2019-08-01 02:00:00 20.6 0 Calma 7 Oeste 0 900.7 -0.7 45
2019-08-01 01:00:00 20.7 6 Sur 10 Sur 0 901.3 1 44
2019-08-01 00:00:00 21.5 2 Este 13 Sudoeste 0 901.2 1.3 43
2019-07-31 23:00:00 22.8 8 Oeste 15 Oeste 0 901.4 1.4 40
2019-07-31 22:00:00 25 6 Noroeste 19 Noroeste 0 900.3 0.1 35
2019-07-31 21:00:00 28.3 14 Sur 28 Sur 0 899.9 -0.5 27
2019-07-31 20:00:00 29.2 19 Sur 33 Sur 0 900 -1.1 25
2019-07-31 19:00:00 29.7 19 Sudeste 32 Sudeste 0 900.2 -1.3 25
2019-07-31 18:00:00 30.6 12 Sudoeste 38 Sur 0 900.4 -1.3 25
2019-07-31 17:00:00 30.3 18 Sur 36 Sur 0 901.1 -1.3 21
2019-07-31 16:00:00 30.6 17 Sudoeste 36 Sur 0 901.5 -1.5 20
2019-07-31 15:00:00 28.9 9 Norte 18 Oeste 0 901.7 -1.5 28
2019-07-31 14:00:00 27.4 8 Norte 17 Noroeste 0 902.4 -0.8 33
2019-07-31 13:00:00 25.7 6 Norte 18 Noroeste 0 903 -0.1 36
2019-07-31 12:00:00 23.2 7 Noroeste 17 Noroeste 0 903.2 0 37
2019-07-31 11:00:00 20.8 8 Oeste 14 Oeste 0 903.2 -0.2 36
2019-07-31 10:00:00 18 6 Oeste 12 Sudoeste 0 903.1 -0.5 40
2019-07-31 09:00:00 15.4 4 Oeste 8 Oeste 0 903.2 -0.5 46
2019-07-31 08:00:00 12.8 0 Calma 7 Sur 0 903.4 -0.3 53
2019-07-31 07:00:00 12.4 3 Sudeste 6 Sudeste 0 903.6 -0.4 50
2019-07-31 06:00:00 12.4 3 Sudeste 6 Sudeste 0 903.7 -0.6 49
2019-07-31 05:00:00 13.3 2 Sur 6 Sudeste 0 903.7 -0.4 46
2019-07-31 04:00:00 13.5 6 Sudeste 9 Sudeste 0 904 -0.1 45
2019-07-31 03:00:00 13.8 8 Sur 10 Sur 0 904.3 -0.1 44
2019-07-31 02:00:00 15.1 5 Sudeste 14 Este 0 904.1 -0.2 41
2019-07-31 01:00:00 16.3 11 Este 17 Este 0 904.1 0.3 41
2019-07-31 00:00:00 17.8 9 Este 26 Nordeste 0 904.4 1 34
2019-07-30 23:00:00 19.3 13 Nordeste 29 Nordeste 0 904.3 1.1 30
2019-07-30 22:00:00 20.8 13 Nordeste 27 Norte 0 903.8 0.6 29
2019-07-30 21:00:00 22.4 12 Norte 26 Norte 0 903.4 -0.1 28
2019-07-30 20:00:00 24 9 Norte 19 Norte 0 903.2 -0.7 25
2019-07-30 19:00:00 24.6 9 Noroeste 23 Noroeste 0 903.2 -1.2 24
2019-07-30 18:00:00 24.8 10 Nordeste 24 Noroeste 0 903.5 -1.2 25
2019-07-30 17:00:00 24.8 8 Norte 18 Norte 0 903.9 -1.2 22
2019-07-30 16:00:00 23.7 9 Norte 20 Noroeste 0 904.4 -1 23
2019-07-30 15:00:00 23.1 9 Noroeste 21 Noroeste 0 904.7 -0.9 23
2019-07-30 14:00:00 21.8 9 Noroeste 23 Noroeste 0 905.1 -0.6 25
2019-07-30 13:00:00 20.3 7 Noroeste 18 Noroeste 0 905.4 -0.6 32
2019-07-30 12:00:00 18 7 Norte 18 Norte 0 905.6 -0.1 42
2019-07-30 11:00:00 16.1 4 Norte 9 Oeste 0 905.7 0.4 50
2019-07-30 10:00:00 13.8 4 Sur 12 Oeste 0 906 1 58
2019-07-30 09:00:00 11.9 7 Oeste 11 Sudoeste 0 905.7 0.8 63
2019-07-30 08:00:00 10.2 5 Sudoeste 10 Sudoeste 0 905.3 0.5 68
2019-07-30 07:00:00 10.2 8 Sudoeste 12 Sudoeste 0 905 0.5 65
2019-07-30 06:00:00 10.5 5 Sur 9 Sur 0 904.9 0.4 62
2019-07-30 05:00:00 11.5 4 Sur 10 Sudoeste 0 904.8 0.6 56
2019-07-30 04:00:00 12.8 3 Sudoeste 10 Sudoeste 0 904.5 0.5 51
2019-07-30 03:00:00 13.8 9 Sudoeste 11 Sudoeste 0 904.5 0.9 48
2019-07-30 02:00:00 15.3 8 Sudoeste 11 Oeste 0 904.2 1 43
2019-07-30 01:00:00 16.6 5 Oeste 17 Oeste 0 904 2 39
2019-07-30 00:00:00 18.3 3 Noroeste 6 Oeste 0 903.6 2.4 36
2019-07-29 23:00:00 19.2 6 Oeste 22 Noroeste 0 903.2 2.4 34
2019-07-29 22:00:00 21.1 8 Oeste 29 Noroeste 0 902 1.5 27
2019-07-29 21:00:00 23.6 13 Oeste 29 Oeste 0 901.2 0.8 25
2019-07-29 20:00:00 25.2 16 Oeste 36 Oeste 0 900.8 0.5 24
2019-07-29 19:00:00 26 18 Oeste 33 Oeste 0 900.5 0.3 20
2019-07-29 18:00:00 26.4 15 Oeste 35 Noroeste 0 900.4 0.3 30
2019-07-29 17:00:00 26.6 20 Oeste 37 Oeste 0 900.3 -0.2 33
2019-07-29 16:00:00 26.2 16 Noroeste 30 Oeste 0 900.2 -0.6 32
2019-07-29 15:00:00 25.9 14 Oeste 29 Oeste 0 900.1 -0.9 32
2019-07-29 14:00:00 25 10 Oeste 24 Oeste 0 900.5 -0.4 29
2019-07-29 13:00:00 24.2 7 Oeste 23 Oeste 0 900.8 0.2 25
2019-07-29 12:00:00 22.6 8 Oeste 21 Oeste 0 901 0.4 31
2019-07-29 11:00:00 20.9 9 Oeste 18 Noroeste 0 900.9 0.3 41
2019-07-29 10:00:00 19.5 7 Oeste 13 Noroeste 0 900.6 0.2 49
2019-07-29 09:00:00 18.1 5 Sur 11 Sudeste 0 900.6 0.3 51
2019-07-29 08:00:00 15.2 7 Sur 10 Sur 0 900.6 0.7 51
2019-07-29 07:00:00 15.5 3 Sudoeste 9 Sudoeste 0 900.4 1.2 45
2019-07-29 06:00:00 16.4 6 Sur 20 Sudoeste 0 900.3 0.9 43
2019-07-29 05:00:00 16.9 13 Sudoeste 19 Sudoeste 0 899.9 0.5 37
2019-07-29 04:00:00 16.6 5 Este 8 Sudeste 0 899.2 -0.1 40
2019-07-29 03:00:00 17 5 Este 8 Este 0 899.4 -0.1 37
2019-07-29 02:00:00 17.9 2 Nordeste 8 Nordeste 0 899.4 -0.2 31
2019-07-29 01:00:00 18.9 8 Este 14 Sudeste 0 899.3 0.2 28
2019-07-29 00:00:00 19.1 7 Este 10 Este 0 899.5 0.6 29
2019-07-28 23:00:00 21 7 Este 12 Sudeste 0 899.6 1 25
2019-07-28 22:00:00 22.9 3 Noroeste 12 Noroeste 0 899.1 0.7 19
2019-07-28 21:00:00 24.8 9 Oeste 21 Noroeste 0 898.9 0.2 18
2019-07-28 20:00:00 26.1 9 Oeste 22 Oeste 0 898.6 -0.5 15
2019-07-28 19:00:00 26.4 11 Oeste 25 Oeste 0 898.4 -1.2 18
2019-07-28 18:00:00 26.2 10 Noroeste 21 Oeste 0 898.7 -1.2 19
2019-07-28 17:00:00 26 14 Oeste 27 Oeste 0 899.1 -1 20
2019-07-28 16:00:00 25.4 6 Oeste 24 Oeste 0 899.6 -0.8 23
2019-07-28 15:00:00 24 14 Oeste 28 Sudoeste 0 899.9 -0.7 30
2019-07-28 14:00:00 23.1 7 Oeste 22 Oeste 0 900.1 -0.6 33
2019-07-28 13:00:00 21.5 8 Norte 19 Oeste 0 900.4 -0.7 39
2019-07-28 12:00:00 20.6 9 Oeste 15 Noroeste 0 900.6 -0.3 42
2019-07-28 11:00:00 18.8 5 Nordeste 10 Nordeste 0 900.7 0 47
2019-07-28 10:00:00 16.1 3 Este 7 Sudoeste 0 901.1 0.6 64
2019-07-28 09:00:00 12.8 2 Sur 5 Sur 0 900.9 0.4 78
2019-07-28 08:00:00 10 2 Sur 8 Sur 0 900.7 0.2 86
2019-07-28 07:00:00 9.7 6 Sudeste 9 Sudeste 0 900.5 0 86
2019-07-28 06:00:00 9.9 4 Sur 14 Sur 0 900.5 0.3 85
2019-07-28 05:00:00 10.3 9 Sur 13 Sudoeste 0 900.5 0.4 87
2019-07-28 04:00:00 11.5 5 Oeste 9 Sudoeste 0 900.5 0.3 80
2019-07-28 03:00:00 12.9 4 Nordeste 15 Nordeste 0 900.2 0.2 75
2019-07-28 02:00:00 13.5 8 Norte 18 Nordeste 0 900.1 0.6 74
2019-07-28 01:00:00 14.3 9 Nordeste 33 Nordeste 0 900.2 1.4 72
2019-07-28 00:00:00 15.5 14 Nordeste 28 Nordeste 0 900 2 69
2019-07-27 23:00:00 16 15 Nordeste 31 Nordeste 0 899.5 2 71
2019-07-26 12:00:00 20.6 15 Noroeste 24 Oeste 0 901.7 0.1 64
2019-07-26 11:00:00 20.5 6 Noroeste 16 Noroeste 0 901.6 0.2 64
2019-07-26 10:00:00 19.3 5 Oeste 17 Noroeste 0 901.6 0.1 69
2019-07-26 09:00:00 17.6 11 Oeste 16 Oeste 0 901.6 0.4 77
2019-07-26 08:00:00 17.3 6 Oeste 13 Oeste 0 901.4 -1.4 83
2019-07-26 07:00:00 17 4 Sudoeste 28 Oeste 0 901.5 -0.7 84
2019-07-26 06:00:00 18 9 Oeste 22 Este 0 901.2 -0.6 81
2019-07-26 05:00:00 19.4 8 Sudoeste 19 Sudoeste 0 902.8 0.9 70
2019-07-26 04:00:00 19.9 6 Oeste 33 Oeste 0 902.2 -0.2 66
2019-07-26 03:00:00 21.6 9 Oeste 14 Oeste 0 901.8 -0.5 45
2019-07-26 02:00:00 22.1 8 Sudeste 12 Sudoeste 0 901.9 0 40
2019-07-26 01:00:00 22.9 7 Sudoeste 11 Oeste 0 902.4 1.1 37
2019-07-26 00:00:00 24 5 Oeste 14 Sudoeste 0 902.3 1.3 32
2019-07-25 23:00:00 25 0 Calma 13 Oeste 0 901.9 1.4 30
2019-07-25 22:00:00 26.8 6 Sudoeste 27 Sudoeste 0 901.3 0.9 23
2019-07-25 21:00:00 29.1 20 Sudoeste 37 Sudoeste 0 901 0.3 21
2019-07-25 20:00:00 31.3 21 Oeste 40 Sudoeste 0 900.5 -0.7 18
2019-07-25 19:00:00 32.3 26 Sudoeste 44 Sudoeste 0 900.4 -0.8 20
2019-07-25 18:00:00 32.6 18 Sudoeste 39 Sudoeste 0 900.7 -0.8 16
2019-07-25 17:00:00 32.8 30 Sudoeste 46 Sudoeste 0 901.2 -0.7 18
2019-07-25 16:00:00 33.8 22 Sudoeste 58 Sur 0 901.2 -1.1 16
2019-07-25 15:00:00 32.9 23 Sudoeste 41 Sudoeste 0 901.5 -0.9 18
2019-07-25 14:00:00 32.3 18 Sudoeste 36 Sur 0 901.9 -0.7 21
2019-07-25 13:00:00 31.1 19 Sur 33 Sudoeste 0 902.3 -0.6 23
2019-07-25 12:00:00 30.9 14 Sur 27 Sur 0 902.4 -0.3 25
2019-07-25 11:00:00 28.2 5 Noroeste 10 Nordeste 0 902.6 0.1 32
2019-07-25 10:00:00 25.7 3 Sur 9 Oeste 0 902.9 0.5 36
2019-07-25 09:00:00 23 3 Este 7 Sudeste 0 902.7 0.2 44
2019-07-25 08:00:00 20.3 2 Sudoeste 9 Nordeste 0 902.5 -0.4 49
2019-07-25 07:00:00 20.6 6 Este 18 Este 0 902.4 -0.5 46
2019-07-25 06:00:00 20.9 5 Este 11 Sudeste 0 902.5 -0.1 48
2019-07-25 05:00:00 21.1 8 Sur 14 Sur 0 902.9 0.5 46
2019-07-25 04:00:00 22.5 11 Sur 19 Sudoeste 0 902.9 0.6 43
2019-07-25 03:00:00 23.5 12 Oeste 21 Oeste 0 902.6 0.4 37
2019-07-25 02:00:00 24.6 4 Sur 10 Sudeste 0 902.4 0.1 33
2019-07-25 01:00:00 24.6 6 Este 16 Nordeste 0 902.3 0.3 34
2019-07-25 00:00:00 25.4 5 Sudeste 13 Este 0 902.2 0.4 32
2019-07-24 23:00:00 27.2 6 Este 12 Sudeste 0 902.3 0.6 29
2019-07-24 22:00:00 28.8 9 Sur 18 Sur 0 902 0.2 26
2019-07-24 21:00:00 31.2 14 Sur 32 Sur 0 901.8 -0.4 23
2019-07-24 20:00:00 32.2 21 Sur 34 Sur 0 901.7 -0.8 22
2019-07-24 19:00:00 33 21 Sur 38 Sudoeste 0 901.8 -0.9 19
2019-07-24 18:00:00 33.2 21 Sur 41 Sur 0 902.2 -1.1 21
2019-07-24 17:00:00 34.1 17 Sur 41 Sur 0 902.5 -1.2 18
2019-07-24 16:00:00 33.6 14 Sudoeste 41 Sudeste 0 902.7 -1.1 20
2019-07-24 15:00:00 33.3 16 Sur 38 Sudeste 0 903.3 -0.7 21
2019-07-24 14:00:00 33.3 20 Sur 37 Sudoeste 0 903.7 -0.3 22
2019-07-24 13:00:00 32.6 26 Sudoeste 36 Sudoeste 0 903.8 -0.1 21
2019-07-24 12:00:00 31.3 16 Sudoeste 28 Sudeste 0 904 0.2 23
2019-07-24 11:00:00 31 18 Sudeste 33 Sudeste 0 904 0.4 24
2019-07-24 10:00:00 29.3 23 Sudeste 40 Sudeste 0 903.9 0.3 25
2019-07-24 09:00:00 26.8 28 Sudeste 42 Sudeste 0 903.8 0 28
2019-07-24 08:00:00 25.2 31 Sudeste 41 Sudeste 0 903.6 -0.2 30
2019-07-24 07:00:00 24.7 6 Sur 26 Sur 0 903.6 -0.6 31
2019-07-24 06:00:00 23.3 4 Oeste 12 Sudeste 0 903.8 -1.1 35
2019-07-24 05:00:00 23.9 2 Sur 19 Este 0 903.8 -1.6 33
2019-07-24 04:00:00 23.1 3 Norte 20 Sudoeste 0 904.2 -0.9 38
2019-07-24 03:00:00 24.6 8 Sudeste 21 Nordeste 0 904.9 0.3 31
2019-07-24 02:00:00 25.3 7 Nordeste 32 Sur 0 905.4 -0.3 30
2019-07-24 01:00:00 24.8 8 Sur 26 Sur 0 905.1 0 31
2019-07-24 00:00:00 24 18 Sudeste 39 Sudeste 0 904.6 0.7 38
2019-07-23 23:00:00 24 32 Sur 69 Sur 0 905.7 2.9 39
2019-07-23 22:00:00 25.1 45 Sudeste 79 Sudeste 0 905.1 2.3 37
2019-07-23 21:00:00 27.5 24 Sudeste 80 Sudoeste 0.2 903.9 0.9 29
2019-07-23 20:00:00 32.7 20 Sur 37 Sudeste 0 902.8 -0.9 19
2019-07-23 19:00:00 33.4 21 Sudeste 44 Sur 0 902.8 -1.2 18
2019-07-23 18:00:00 34.1 24 Sudeste 38 Sudeste 0 903 -1.2 18
2019-07-23 17:00:00 34 24 Sur 42 Sur 0 903.7 -1.2 18
2019-07-23 16:00:00 34.4 18 Sur 41 Sur 0 904 -1.7 19
2019-07-23 15:00:00 32.8 22 Sudeste 35 Sudeste 0 904.2 -1.7 22
2019-07-23 14:00:00 31.2 20 Sur 30 Sur 0 904.9 -0.5 24
2019-07-23 13:00:00 28.8 8 Oeste 25 Oeste 0 905.7 -0.4 33
2019-07-23 12:00:00 25.6 6 Sudoeste 14 Oeste 0 905.9 -0.4 45
2019-07-23 11:00:00 25.3 5 Noroeste 12 Sudoeste 0 905.4 -2.3 48
2019-07-23 10:00:00 21.8 6 Sur 18 Sudeste 0 906.1 -1.4 60
2019-07-23 09:00:00 21 13 Sudeste 31 Sudeste 0.4 906.3 -0.4 54
2019-07-23 08:00:00 19.4 8 Sur 38 Sudoeste 0 907.7 1.5 62
2019-07-23 07:00:00 24.1 28 Sudoeste 39 Sudoeste 0 907.5 1.2 32
2019-07-23 06:00:00 21.9 15 Sur 20 Sudoeste 0 906.7 -0.8 38
2019-07-23 05:00:00 21.8 6 Sur 23 Sudeste 0 906.2 -1.5 41
2019-07-23 04:00:00 22.1 4 Sudoeste 12 Este 0 906.3 -1.3 40
2019-07-23 03:00:00 23.2 4 Sudeste 22 Noroeste 0 907.5 0.7 38
2019-07-23 02:00:00 24.6 7 Noroeste 20 Noroeste 0 907.7 1.4 33
2019-07-23 01:00:00 26.3 9 Oeste 24 Este 0 907.6 1.8 31
2019-07-23 00:00:00 29.3 20 Este 33 Este 0 906.8 1.3 17
2019-07-22 23:00:00 29.7 12 Sudeste 19 Sudeste 0 906.3 0.9 23
2019-07-22 22:00:00 30.2 6 Nordeste 21 Sudeste 0 905.8 0.4 24
2019-07-22 21:00:00 31.9 17 Sudeste 36 Sudeste 0 905.5 0.1 22
2019-07-22 20:00:00 33.1 20 Sudeste 39 Este 0 905.4 -0.4 21
2019-07-22 19:00:00 33.9 25 Sudeste 41 Este 0 905.4 -0.5 19
2019-07-22 18:00:00 34.4 26 Sudeste 47 Sudeste 0 905.4 -0.9 19
2019-07-22 17:00:00 34.8 25 Sudeste 41 Sudeste 0 905.8 -0.8 18
2019-07-22 16:00:00 35.3 23 Sudeste 43 Sudeste 0 905.9 -1.2 18
2019-07-22 15:00:00 35.9 21 Sudeste 36 Sudeste 0 906.3 -0.7 17
2019-07-22 14:00:00 35.5 8 Sur 21 Este 0 906.6 -0.5 17
2019-07-22 13:00:00 35 8 Este 22 Sudoeste 0 907.1 0 18
2019-07-22 12:00:00 34.4 5 Sudoeste 18 Oeste 0 907 -0.1 20
2019-07-22 11:00:00 31.3 8 Noroeste 20 Este 0 907.1 0.1 23
2019-07-22 10:00:00 30.9 11 Este 24 Este 0 907.1 0 23
2019-07-22 09:00:00 28.7 12 Este 25 Sudeste 0 907.1 0 24
2019-07-22 08:00:00 25.8 4 Nordeste 20 Este 0 907 -0.3 29
2019-07-22 07:00:00 25.8 16 Sudeste 31 Sudeste 0 907.1 -0.3 26
2019-07-22 06:00:00 25.8 24 Sudeste 33 Sudeste 0 907.1 -0.4 27
2019-07-22 05:00:00 25.9 20 Este 37 Este 0 907.3 -0.2 30
2019-07-22 04:00:00 26.3 28 Este 54 Sudeste 0 907.4 -0.2 39
2019-07-22 03:00:00 26.7 22 Este 52 Este 0 907.5 0 39
2019-07-22 02:00:00 27.3 10 Sudeste 33 Sudeste 0 907.5 0.4 40
2019-07-22 01:00:00 28.2 13 Sudeste 26 Sudeste 0 907.6 1.3 37
2019-07-22 00:00:00 29.2 15 Sur 26 Sur 0 907.5 1.7 30